sensor_id;sensor_type;location;lat;lon;timestamp;P1;durP1;ratioP1;P2;durP2;ratioP2
34926;SDS011;21132;48.308;14.274;2022-09-03T00:04:38;1.23;;;0.90;;
34926;SDS011;21132;48.308;14.274;2022-09-03T00:07:50;3.25;;;1.10;;
34926;SDS011;21132;48.308;14.274;2022-09-03T00:10:33;1.52;;;1.00;;
34926;SDS011;21132;48.308;14.274;2022-09-03T00:13:09;4.22;;;1.33;;
34926;SDS011;21132;48.308;14.274;2022-09-03T00:15:41;1.88;;;1.23;;
34926;SDS011;21132;48.308;14.274;2022-09-03T00:18:08;2.17;;;1.33;;
34926;SDS011;21132;48.308;14.274;2022-09-03T00:20:55;6.40;;;1.13;;
34926;SDS011;21132;48.308;14.274;2022-09-03T00:23:32;3.38;;;1.08;;
34926;SDS011;21132;48.308;14.274;2022-09-03T00:28:50;1.77;;;1.13;;
34926;SDS011;21132;48.308;14.274;2022-09-03T00:34:14;1.55;;;0.80;;
34926;SDS011;21132;48.308;14.274;2022-09-03T00:36:54;1.50;;;1.00;;
34926;SDS011;21132;48.308;14.274;2022-09-03T00:39:22;1.80;;;1.00;;
34926;SDS011;21132;48.308;14.274;2022-09-03T00:53:04;1.30;;;0.90;;
34926;SDS011;21132;48.308;14.274;2022-09-03T00:55:48;2.63;;;0.82;;
34926;SDS011;21132;48.308;14.274;2022-09-03T01:01:08;4.32;;;0.90;;
34926;SDS011;21132;48.308;14.274;2022-09-03T01:07:09;1.45;;;0.82;;
34926;SDS011;21132;48.308;14.274;2022-09-03T01:09:46;2.28;;;0.98;;
34926;SDS011;21132;48.308;14.274;2022-09-03T01:12:32;3.08;;;1.10;;
34926;SDS011;21132;48.308;14.274;2022-09-03T01:18:07;4.75;;;1.10;;
34926;SDS011;21132;48.308;14.274;2022-09-03T01:20:54;2.22;;;1.00;;
34926;SDS011;21132;48.308;14.274;2022-09-03T01:26:15;2.13;;;0.98;;
34926;SDS011;21132;48.308;14.274;2022-09-03T01:31:46;3.53;;;1.60;;
34926;SDS011;21132;48.308;14.274;2022-09-03T01:34:38;1.00;;;0.75;;
34926;SDS011;21132;48.308;14.274;2022-09-03T01:44:13;2.22;;;0.90;;
34926;SDS011;21132;48.308;14.274;2022-09-03T01:47:11;1.35;;;1.05;;
34926;SDS011;21132;48.308;14.274;2022-09-03T01:50:03;1.83;;;1.00;;
34926;SDS011;21132;48.308;14.274;2022-09-03T01:52:54;2.20;;;1.10;;
34926;SDS011;21132;48.308;14.274;2022-09-03T01:55:33;2.80;;;1.23;;
34926;SDS011;21132;48.308;14.274;2022-09-03T01:58:06;2.05;;;1.27;;
34926;SDS011;21132;48.308;14.274;2022-09-03T02:00:54;3.08;;;1.05;;
34926;SDS011;21132;48.308;14.274;2022-09-03T02:03:32;5.87;;;1.10;;
34926;SDS011;21132;48.308;14.274;2022-09-03T02:06:09;1.98;;;1.00;;
34926;SDS011;21132;48.308;14.274;2022-09-03T02:08:39;1.77;;;0.93;;
34926;SDS011;21132;48.308;14.274;2022-09-03T02:11:06;5.10;;;1.17;;
34926;SDS011;21132;48.308;14.274;2022-09-03T02:13:35;2.15;;;1.10;;
34926;SDS011;21132;48.308;14.274;2022-09-03T02:16:10;5.25;;;1.27;;
34926;SDS011;21132;48.308;14.274;2022-09-03T02:18:40;1.63;;;1.05;;
34926;SDS011;21132;48.308;14.274;2022-09-03T02:21:10;2.40;;;0.88;;
34926;SDS011;21132;48.308;14.274;2022-09-03T02:23:41;1.60;;;0.90;;
34926;SDS011;21132;48.308;14.274;2022-09-03T02:26:07;8.90;;;1.55;;
34926;SDS011;21132;48.308;14.274;2022-09-03T02:28:35;2.90;;;1.30;;
34926;SDS011;21132;48.308;14.274;2022-09-03T02:31:01;3.22;;;1.48;;
34926;SDS011;21132;48.308;14.274;2022-09-03T02:33:28;1.77;;;1.10;;
34926;SDS011;21132;48.308;14.274;2022-09-03T02:35:56;1.35;;;0.88;;
34926;SDS011;21132;48.308;14.274;2022-09-03T02:38:23;1.55;;;0.90;;
34926;SDS011;21132;48.308;14.274;2022-09-03T02:40:49;1.50;;;0.85;;
34926;SDS011;21132;48.308;14.274;2022-09-03T02:43:17;3.72;;;1.35;;
34926;SDS011;21132;48.308;14.274;2022-09-03T02:46:06;2.13;;;1.27;;
34926;SDS011;21132;48.308;14.274;2022-09-03T02:48:37;2.38;;;1.10;;
34926;SDS011;21132;48.308;14.274;2022-09-03T02:51:03;1.67;;;1.10;;
34926;SDS011;21132;48.308;14.274;2022-09-03T02:53:28;5.38;;;1.40;;
34926;SDS011;21132;48.308;14.274;2022-09-03T02:55:58;2.70;;;1.25;;
34926;SDS011;21132;48.308;14.274;2022-09-03T02:58:24;3.40;;;1.10;;
34926;SDS011;21132;48.308;14.274;2022-09-03T03:00:51;3.83;;;1.50;;
34926;SDS011;21132;48.308;14.274;2022-09-03T03:03:18;3.40;;;1.27;;
34926;SDS011;21132;48.308;14.274;2022-09-03T03:05:46;5.00;;;1.60;;
34926;SDS011;21132;48.308;14.274;2022-09-03T03:08:17;3.55;;;1.20;;
34926;SDS011;21132;48.308;14.274;2022-09-03T03:10:47;1.67;;;1.00;;
34926;SDS011;21132;48.308;14.274;2022-09-03T03:13:14;1.55;;;1.25;;
34926;SDS011;21132;48.308;14.274;2022-09-03T03:15:41;2.90;;;1.50;;
34926;SDS011;21132;48.308;14.274;2022-09-03T03:18:07;2.03;;;1.23;;
34926;SDS011;21132;48.308;14.274;2022-09-03T03:20:36;4.30;;;1.48;;
34926;SDS011;21132;48.308;14.274;2022-09-03T03:23:03;11.23;;;1.38;;
34926;SDS011;21132;48.308;14.274;2022-09-03T03:25:33;4.68;;;1.73;;
34926;SDS011;21132;48.308;14.274;2022-09-03T03:28:00;1.40;;;1.13;;
34926;SDS011;21132;48.308;14.274;2022-09-03T03:30:27;4.13;;;2.05;;
34926;SDS011;21132;48.308;14.274;2022-09-03T03:32:53;4.82;;;1.13;;
34926;SDS011;21132;48.308;14.274;2022-09-03T03:35:19;4.28;;;1.40;;
34926;SDS011;21132;48.308;14.274;2022-09-03T03:37:45;6.35;;;1.13;;
34926;SDS011;21132;48.308;14.274;2022-09-03T03:40:11;2.85;;;1.33;;
34926;SDS011;21132;48.308;14.274;2022-09-03T03:42:37;2.47;;;1.13;;
34926;SDS011;21132;48.308;14.274;2022-09-03T03:45:03;3.05;;;0.98;;
34926;SDS011;21132;48.308;14.274;2022-09-03T03:47:30;1.00;;;0.90;;
34926;SDS011;21132;48.308;14.274;2022-09-03T03:49:56;1.02;;;0.90;;
34926;SDS011;21132;48.308;14.274;2022-09-03T03:52:23;1.65;;;1.27;;
34926;SDS011;21132;48.308;14.274;2022-09-03T03:54:50;3.75;;;1.48;;
34926;SDS011;21132;48.308;14.274;2022-09-03T03:57:17;4.65;;;1.90;;
34926;SDS011;21132;48.308;14.274;2022-09-03T03:59:43;2.88;;;1.25;;
34926;SDS011;21132;48.308;14.274;2022-09-03T04:02:10;2.15;;;1.30;;
34926;SDS011;21132;48.308;14.274;2022-09-03T04:04:36;3.53;;;1.77;;
34926;SDS011;21132;48.308;14.274;2022-09-03T04:07:01;1.88;;;1.33;;
34926;SDS011;21132;48.308;14.274;2022-09-03T04:09:27;3.13;;;1.00;;
34926;SDS011;21132;48.308;14.274;2022-09-03T04:11:53;3.30;;;1.20;;
34926;SDS011;21132;48.308;14.274;2022-09-03T04:14:20;3.92;;;1.77;;
34926;SDS011;21132;48.308;14.274;2022-09-03T04:16:46;1.80;;;1.40;;
34926;SDS011;21132;48.308;14.274;2022-09-03T04:19:12;4.03;;;1.60;;
34926;SDS011;21132;48.308;14.274;2022-09-03T04:21:38;2.55;;;1.27;;
34926;SDS011;21132;48.308;14.274;2022-09-03T04:24:04;5.45;;;1.10;;
34926;SDS011;21132;48.308;14.274;2022-09-03T04:26:30;6.15;;;1.42;;
34926;SDS011;21132;48.308;14.274;2022-09-03T04:28:58;2.25;;;1.30;;
34926;SDS011;21132;48.308;14.274;2022-09-03T04:31:27;3.30;;;1.15;;
34926;SDS011;21132;48.308;14.274;2022-09-03T04:33:53;4.53;;;1.30;;
34926;SDS011;21132;48.308;14.274;2022-09-03T04:36:22;3.58;;;1.35;;
34926;SDS011;21132;48.308;14.274;2022-09-03T04:38:51;5.50;;;1.98;;
34926;SDS011;21132;48.308;14.274;2022-09-03T04:41:22;3.80;;;1.38;;
34926;SDS011;21132;48.308;14.274;2022-09-03T04:43:52;2.55;;;1.38;;
34926;SDS011;21132;48.308;14.274;2022-09-03T04:46:20;2.20;;;1.50;;
34926;SDS011;21132;48.308;14.274;2022-09-03T04:48:51;3.70;;;1.50;;
34926;SDS011;21132;48.308;14.274;2022-09-03T04:51:20;4.88;;;1.77;;
34926;SDS011;21132;48.308;14.274;2022-09-03T04:53:51;5.15;;;1.70;;
34926;SDS011;21132;48.308;14.274;2022-09-03T04:56:26;3.08;;;1.65;;
34926;SDS011;21132;48.308;14.274;2022-09-03T04:58:57;4.78;;;1.50;;
34926;SDS011;21132;48.308;14.274;2022-09-03T05:01:25;3.38;;;1.60;;
34926;SDS011;21132;48.308;14.274;2022-09-03T05:03:53;2.58;;;1.50;;
34926;SDS011;21132;48.308;14.274;2022-09-03T05:06:20;2.17;;;1.52;;
34926;SDS011;21132;48.308;14.274;2022-09-03T05:08:49;3.28;;;1.80;;
34926;SDS011;21132;48.308;14.274;2022-09-03T05:11:17;2.25;;;1.67;;
34926;SDS011;21132;48.308;14.274;2022-09-03T05:13:45;4.32;;;1.30;;
34926;SDS011;21132;48.308;14.274;2022-09-03T05:16:13;2.40;;;1.48;;
34926;SDS011;21132;48.308;14.274;2022-09-03T05:18:39;2.20;;;1.40;;
34926;SDS011;21132;48.308;14.274;2022-09-03T05:21:10;2.70;;;1.45;;
34926;SDS011;21132;48.308;14.274;2022-09-03T05:23:38;2.70;;;1.35;;
34926;SDS011;21132;48.308;14.274;2022-09-03T05:26:06;2.92;;;1.30;;
34926;SDS011;21132;48.308;14.274;2022-09-03T05:28:35;2.38;;;1.50;;
34926;SDS011;21132;48.308;14.274;2022-09-03T05:31:05;8.57;;;1.50;;
34926;SDS011;21132;48.308;14.274;2022-09-03T05:33:42;4.50;;;1.98;;
34926;SDS011;21132;48.308;14.274;2022-09-03T05:36:19;1.92;;;1.65;;
34926;SDS011;21132;48.308;14.274;2022-09-03T05:38:47;2.65;;;1.50;;
34926;SDS011;21132;48.308;14.274;2022-09-03T05:41:13;3.50;;;1.77;;
34926;SDS011;21132;48.308;14.274;2022-09-03T05:43:40;4.60;;;1.45;;
34926;SDS011;21132;48.308;14.274;2022-09-03T05:46:08;5.10;;;1.50;;
34926;SDS011;21132;48.308;14.274;2022-09-03T05:48:39;2.95;;;1.55;;
34926;SDS011;21132;48.308;14.274;2022-09-03T05:51:14;5.50;;;1.77;;
34926;SDS011;21132;48.308;14.274;2022-09-03T05:53:41;2.25;;;1.35;;
34926;SDS011;21132;48.308;14.274;2022-09-03T05:56:09;5.60;;;1.40;;
34926;SDS011;21132;48.308;14.274;2022-09-03T05:58:37;3.25;;;1.52;;
34926;SDS011;21132;48.308;14.274;2022-09-03T06:01:10;4.95;;;1.55;;
34926;SDS011;21132;48.308;14.274;2022-09-03T06:03:36;3.22;;;1.88;;
34926;SDS011;21132;48.308;14.274;2022-09-03T06:06:02;4.32;;;1.70;;
34926;SDS011;21132;48.308;14.274;2022-09-03T06:08:29;2.90;;;1.77;;
34926;SDS011;21132;48.308;14.274;2022-09-03T06:10:58;2.05;;;1.35;;
34926;SDS011;21132;48.308;14.274;2022-09-03T06:13:25;3.50;;;2.25;;
34926;SDS011;21132;48.308;14.274;2022-09-03T06:16:01;5.10;;;2.38;;
34926;SDS011;21132;48.308;14.274;2022-09-03T06:18:29;4.50;;;1.77;;
34926;SDS011;21132;48.308;14.274;2022-09-03T06:20:55;3.22;;;1.90;;
34926;SDS011;21132;48.308;14.274;2022-09-03T06:23:23;2.97;;;2.00;;
34926;SDS011;21132;48.308;14.274;2022-09-03T06:28:35;4.50;;;2.65;;
34926;SDS011;21132;48.308;14.274;2022-09-03T06:31:03;8.55;;;3.33;;
34926;SDS011;21132;48.308;14.274;2022-09-03T06:33:32;4.88;;;2.80;;
34926;SDS011;21132;48.308;14.274;2022-09-03T06:35:59;7.03;;;3.35;;
34926;SDS011;21132;48.308;14.274;2022-09-03T06:38:26;7.40;;;3.28;;
34926;SDS011;21132;48.308;14.274;2022-09-03T06:40:56;6.03;;;3.20;;
34926;SDS011;21132;48.308;14.274;2022-09-03T06:43:26;9.23;;;3.63;;
34926;SDS011;21132;48.308;14.274;2022-09-03T06:45:56;7.90;;;3.33;;
34926;SDS011;21132;48.308;14.274;2022-09-03T06:50:55;6.55;;;3.28;;
34926;SDS011;21132;48.308;14.274;2022-09-03T06:53:26;11.82;;;4.03;;
34926;SDS011;21132;48.308;14.274;2022-09-03T06:55:57;11.30;;;4.07;;
34926;SDS011;21132;48.308;14.274;2022-09-03T06:58:31;8.98;;;4.03;;
34926;SDS011;21132;48.308;14.274;2022-09-03T07:01:09;5.90;;;3.67;;
34926;SDS011;21132;48.308;14.274;2022-09-03T07:03:45;5.32;;;3.10;;
34926;SDS011;21132;48.308;14.274;2022-09-03T07:06:14;7.65;;;3.72;;
34926;SDS011;21132;48.308;14.274;2022-09-03T07:08:41;8.27;;;3.75;;
34926;SDS011;21132;48.308;14.274;2022-09-03T07:11:08;10.98;;;3.60;;
34926;SDS011;21132;48.308;14.274;2022-09-03T07:13:36;8.68;;;4.03;;
34926;SDS011;21132;48.308;14.274;2022-09-03T07:16:06;5.88;;;3.60;;
34926;SDS011;21132;48.308;14.274;2022-09-03T07:18:33;8.18;;;4.22;;
34926;SDS011;21132;48.308;14.274;2022-09-03T07:21:04;11.60;;;4.68;;
34926;SDS011;21132;48.308;14.274;2022-09-03T07:23:32;7.72;;;4.40;;
34926;SDS011;21132;48.308;14.274;2022-09-03T07:26:00;12.13;;;3.90;;
34926;SDS011;21132;48.308;14.274;2022-09-03T07:28:28;9.80;;;4.32;;
34926;SDS011;21132;48.308;14.274;2022-09-03T07:30:59;7.65;;;3.80;;
34926;SDS011;21132;48.308;14.274;2022-09-03T07:33:27;7.80;;;3.75;;
34926;SDS011;21132;48.308;14.274;2022-09-03T07:35:55;6.43;;;3.58;;
34926;SDS011;21132;48.308;14.274;2022-09-03T07:38:26;8.25;;;3.42;;
34926;SDS011;21132;48.308;14.274;2022-09-03T07:40:58;9.50;;;2.95;;
34926;SDS011;21132;48.308;14.274;2022-09-03T07:43:29;5.22;;;2.80;;
34926;SDS011;21132;48.308;14.274;2022-09-03T07:46:01;4.43;;;2.40;;
34926;SDS011;21132;48.308;14.274;2022-09-03T07:48:26;3.63;;;2.40;;
34926;SDS011;21132;48.308;14.274;2022-09-03T07:50:56;5.20;;;2.50;;
34926;SDS011;21132;48.308;14.274;2022-09-03T07:53:24;2.97;;;1.98;;
34926;SDS011;21132;48.308;14.274;2022-09-03T07:55:51;4.55;;;2.15;;
34926;SDS011;21132;48.308;14.274;2022-09-03T07:58:17;3.70;;;2.30;;
34926;SDS011;21132;48.308;14.274;2022-09-03T08:00:42;5.53;;;2.22;;
34926;SDS011;21132;48.308;14.274;2022-09-03T08:03:08;4.93;;;2.35;;
34926;SDS011;21132;48.308;14.274;2022-09-03T08:05:35;3.58;;;2.33;;
34926;SDS011;21132;48.308;14.274;2022-09-03T08:08:02;6.15;;;3.05;;
34926;SDS011;21132;48.308;14.274;2022-09-03T08:10:29;3.92;;;2.60;;
34926;SDS011;21132;48.308;14.274;2022-09-03T08:12:56;6.68;;;2.88;;
34926;SDS011;21132;48.308;14.274;2022-09-03T08:15:23;6.00;;;2.30;;
34926;SDS011;21132;48.308;14.274;2022-09-03T08:17:50;9.60;;;2.83;;
34926;SDS011;21132;48.308;14.274;2022-09-03T08:20:16;4.03;;;2.53;;
34926;SDS011;21132;48.308;14.274;2022-09-03T08:22:43;4.38;;;2.28;;
34926;SDS011;21132;48.308;14.274;2022-09-03T08:25:09;5.60;;;2.88;;
34926;SDS011;21132;48.308;14.274;2022-09-03T08:27:35;6.38;;;2.17;;
34926;SDS011;21132;48.308;14.274;2022-09-03T08:30:00;3.65;;;1.95;;
34926;SDS011;21132;48.308;14.274;2022-09-03T08:32:28;10.68;;;1.85;;
34926;SDS011;21132;48.308;14.274;2022-09-03T08:34:54;4.53;;;2.00;;
34926;SDS011;21132;48.308;14.274;2022-09-03T08:37:19;4.38;;;1.83;;
34926;SDS011;21132;48.308;14.274;2022-09-03T08:39:51;4.53;;;1.88;;
34926;SDS011;21132;48.308;14.274;2022-09-03T08:42:25;5.57;;;2.10;;
34926;SDS011;21132;48.308;14.274;2022-09-03T08:45:03;3.38;;;1.98;;
34926;SDS011;21132;48.308;14.274;2022-09-03T08:47:33;2.63;;;1.90;;
34926;SDS011;21132;48.308;14.274;2022-09-03T08:50:15;2.65;;;1.90;;
34926;SDS011;21132;48.308;14.274;2022-09-03T08:55:28;6.07;;;1.48;;
34926;SDS011;21132;48.308;14.274;2022-09-03T09:09:11;9.55;;;3.28;;
34926;SDS011;21132;48.308;14.274;2022-09-03T09:14:45;4.43;;;2.47;;
34926;SDS011;21132;48.308;14.274;2022-09-03T09:23:04;7.60;;;2.92;;
34926;SDS011;21132;48.308;14.274;2022-09-03T09:25:32;4.88;;;2.28;;
34926;SDS011;21132;48.308;14.274;2022-09-03T09:28:07;7.20;;;2.47;;
34926;SDS011;21132;48.308;14.274;2022-09-03T09:30:43;3.08;;;2.30;;
34926;SDS011;21132;48.308;14.274;2022-09-03T09:33:11;6.07;;;2.58;;
34926;SDS011;21132;48.308;14.274;2022-09-03T09:35:38;3.50;;;2.15;;
34926;SDS011;21132;48.308;14.274;2022-09-03T09:38:06;7.35;;;3.33;;
34926;SDS011;21132;48.308;14.274;2022-09-03T09:40:50;2.85;;;1.90;;
34926;SDS011;21132;48.308;14.274;2022-09-03T09:43:16;6.32;;;2.42;;
34926;SDS011;21132;48.308;14.274;2022-09-03T09:45:49;5.18;;;2.80;;
34926;SDS011;21132;48.308;14.274;2022-09-03T09:48:19;6.28;;;3.47;;
34926;SDS011;21132;48.308;14.274;2022-09-03T09:53:44;5.28;;;2.95;;
34926;SDS011;21132;48.308;14.274;2022-09-03T09:56:20;6.78;;;3.10;;
34926;SDS011;21132;48.308;14.274;2022-09-03T09:58:48;5.57;;;2.88;;
34926;SDS011;21132;48.308;14.274;2022-09-03T10:01:22;7.03;;;3.55;;
34926;SDS011;21132;48.308;14.274;2022-09-03T10:03:51;8.32;;;2.80;;
34926;SDS011;21132;48.308;14.274;2022-09-03T10:06:27;6.80;;;3.33;;
34926;SDS011;21132;48.308;14.274;2022-09-03T10:09:15;6.30;;;3.10;;
34926;SDS011;21132;48.308;14.274;2022-09-03T10:11:49;11.93;;;4.75;;
34926;SDS011;21132;48.308;14.274;2022-09-03T10:14:39;7.55;;;3.53;;
34926;SDS011;21132;48.308;14.274;2022-09-03T10:28:15;6.07;;;2.80;;
34926;SDS011;21132;48.308;14.274;2022-09-03T10:36:33;12.30;;;3.88;;
34926;SDS011;21132;48.308;14.274;2022-09-03T11:01:23;7.75;;;3.20;;
34926;SDS011;21132;48.308;14.274;2022-09-03T11:09:35;5.38;;;2.90;;
34926;SDS011;21132;48.308;14.274;2022-09-03T11:14:37;10.05;;;4.00;;
34926;SDS011;21132;48.308;14.274;2022-09-03T11:17:11;6.55;;;3.78;;
34926;SDS011;21132;48.308;14.274;2022-09-03T11:22:54;8.60;;;3.08;;
34926;SDS011;21132;48.308;14.274;2022-09-03T11:27:55;8.48;;;3.25;;
34926;SDS011;21132;48.308;14.274;2022-09-03T11:33:11;6.43;;;3.53;;
34926;SDS011;21132;48.308;14.274;2022-09-03T11:35:39;5.60;;;2.95;;
34926;SDS011;21132;48.308;14.274;2022-09-03T11:40:55;4.68;;;2.47;;
34926;SDS011;21132;48.308;14.274;2022-09-03T11:43:43;6.50;;;2.97;;
34926;SDS011;21132;48.308;14.274;2022-09-03T11:48:48;3.67;;;2.55;;
34926;SDS011;21132;48.308;14.274;2022-09-03T11:51:20;6.05;;;2.72;;
34926;SDS011;21132;48.308;14.274;2022-09-03T11:56:31;3.90;;;2.50;;
34926;SDS011;21132;48.308;14.274;2022-09-03T12:02:02;5.53;;;2.58;;
34926;SDS011;21132;48.308;14.274;2022-09-03T12:13:11;4.85;;;2.22;;
34926;SDS011;21132;48.308;14.274;2022-09-03T12:18:36;4.57;;;2.10;;
34926;SDS011;21132;48.308;14.274;2022-09-03T12:21:05;5.25;;;2.38;;
34926;SDS011;21132;48.308;14.274;2022-09-03T12:23:42;5.35;;;2.50;;
34926;SDS011;21132;48.308;14.274;2022-09-03T12:26:24;2.58;;;1.63;;
34926;SDS011;21132;48.308;14.274;2022-09-03T12:28:57;3.08;;;1.60;;
34926;SDS011;21132;48.308;14.274;2022-09-03T12:31:25;3.13;;;2.13;;
34926;SDS011;21132;48.308;14.274;2022-09-03T12:33:54;2.30;;;1.50;;
34926;SDS011;21132;48.308;14.274;2022-09-03T12:36:25;6.15;;;2.05;;
34926;SDS011;21132;48.308;14.274;2022-09-03T12:39:07;3.13;;;1.90;;
34926;SDS011;21132;48.308;14.274;2022-09-03T12:47:03;5.97;;;1.90;;
34926;SDS011;21132;48.308;14.274;2022-09-03T12:49:38;5.25;;;1.98;;
34926;SDS011;21132;48.308;14.274;2022-09-03T12:52:10;3.70;;;2.10;;
34926;SDS011;21132;48.308;14.274;2022-09-03T12:54:48;2.80;;;1.80;;
34926;SDS011;21132;48.308;14.274;2022-09-03T12:57:30;3.80;;;1.48;;
34926;SDS011;21132;48.308;14.274;2022-09-03T13:00:23;2.08;;;1.45;;
34926;SDS011;21132;48.308;14.274;2022-09-03T13:02:58;4.80;;;1.60;;
34926;SDS011;21132;48.308;14.274;2022-09-03T13:05:31;12.15;;;2.40;;
34926;SDS011;21132;48.308;14.274;2022-09-03T13:08:00;7.43;;;2.63;;
34926;SDS011;21132;48.308;14.274;2022-09-03T13:10:32;5.22;;;1.85;;
34926;SDS011;21132;48.308;14.274;2022-09-03T13:13:21;1.92;;;1.55;;
34926;SDS011;21132;48.308;14.274;2022-09-03T13:16:20;2.75;;;1.65;;
34926;SDS011;21132;48.308;14.274;2022-09-03T13:35:23;3.25;;;1.50;;
34926;SDS011;21132;48.308;14.274;2022-09-03T13:38:02;3.03;;;1.63;;
34926;SDS011;21132;48.308;14.274;2022-09-03T13:46:45;3.28;;;1.85;;
34926;SDS011;21132;48.308;14.274;2022-09-03T13:49:55;3.40;;;1.67;;
34926;SDS011;21132;48.308;14.274;2022-09-03T13:56:03;6.57;;;1.92;;
34926;SDS011;21132;48.308;14.274;2022-09-03T13:58:20;6.05;;;1.60;;
34926;SDS011;21132;48.308;14.274;2022-09-03T14:14:44;2.75;;;1.90;;
34926;SDS011;21132;48.308;14.274;2022-09-03T14:22:59;4.70;;;2.15;;
34926;SDS011;21132;48.308;14.274;2022-09-03T14:25:33;4.85;;;1.88;;
34926;SDS011;21132;48.308;14.274;2022-09-03T14:28:19;7.82;;;1.98;;
34926;SDS011;21132;48.308;14.274;2022-09-03T14:30:53;6.40;;;4.10;;
34926;SDS011;21132;48.308;14.274;2022-09-03T14:39:27;4.78;;;2.22;;
34926;SDS011;21132;48.308;14.274;2022-09-03T14:47:36;12.27;;;2.42;;
34926;SDS011;21132;48.308;14.274;2022-09-03T14:53:07;4.32;;;2.20;;
34926;SDS011;21132;48.308;14.274;2022-09-03T14:55:49;5.30;;;2.40;;
34926;SDS011;21132;48.308;14.274;2022-09-03T15:01:23;4.95;;;2.28;;
34926;SDS011;21132;48.308;14.274;2022-09-03T15:09:39;7.05;;;1.88;;
34926;SDS011;21132;48.308;14.274;2022-09-03T15:12:23;3.15;;;1.90;;
34926;SDS011;21132;48.308;14.274;2022-09-03T15:15:17;5.25;;;2.10;;
34926;SDS011;21132;48.308;14.274;2022-09-03T15:20:44;3.35;;;1.98;;
34926;SDS011;21132;48.308;14.274;2022-09-03T15:23:18;2.53;;;2.08;;
34926;SDS011;21132;48.308;14.274;2022-09-03T15:40:07;4.50;;;1.92;;
34926;SDS011;21132;48.308;14.274;2022-09-03T15:42:48;6.22;;;2.08;;
34926;SDS011;21132;48.308;14.274;2022-09-03T15:54:00;3.88;;;1.63;;
34926;SDS011;21132;48.308;14.274;2022-09-03T15:56:38;5.78;;;1.98;;
34926;SDS011;21132;48.308;14.274;2022-09-03T15:59:15;4.75;;;2.30;;
34926;SDS011;21132;48.308;14.274;2022-09-03T16:02:08;5.10;;;2.30;;
34926;SDS011;21132;48.308;14.274;2022-09-03T16:10:07;7.18;;;2.45;;
34926;SDS011;21132;48.308;14.274;2022-09-03T16:15:57;4.85;;;2.22;;
34926;SDS011;21132;48.308;14.274;2022-09-03T16:18:37;10.85;;;3.78;;
34926;SDS011;21132;48.308;14.274;2022-09-03T16:21:31;4.75;;;2.65;;
34926;SDS011;21132;48.308;14.274;2022-09-03T16:27:10;4.35;;;2.45;;
34926;SDS011;21132;48.308;14.274;2022-09-03T16:29:49;7.90;;;3.03;;
34926;SDS011;21132;48.308;14.274;2022-09-03T16:32:33;15.07;;;5.13;;
34926;SDS011;21132;48.308;14.274;2022-09-03T16:38:33;5.00;;;3.00;;
34926;SDS011;21132;48.308;14.274;2022-09-03T16:41:14;13.00;;;3.17;;
34926;SDS011;21132;48.308;14.274;2022-09-03T17:02:27;5.88;;;2.88;;
34926;SDS011;21132;48.308;14.274;2022-09-03T17:08:23;6.57;;;2.83;;
34926;SDS011;21132;48.308;14.274;2022-09-03T17:11:18;7.78;;;3.25;;
34926;SDS011;21132;48.308;14.274;2022-09-03T17:22:21;3.85;;;2.20;;
34926;SDS011;21132;48.308;14.274;2022-09-03T17:24:56;5.43;;;2.97;;
34926;SDS011;21132;48.308;14.274;2022-09-03T17:27:48;8.48;;;3.78;;
34926;SDS011;21132;48.308;14.274;2022-09-03T17:30:54;8.57;;;4.20;;
34926;SDS011;21132;48.308;14.274;2022-09-03T17:36:15;7.18;;;3.45;;
34926;SDS011;21132;48.308;14.274;2022-09-03T17:49:25;7.82;;;2.97;;
34926;SDS011;21132;48.308;14.274;2022-09-03T17:51:59;6.85;;;3.00;;
34926;SDS011;21132;48.308;14.274;2022-09-03T17:54:41;5.55;;;3.10;;
34926;SDS011;21132;48.308;14.274;2022-09-03T17:57:14;6.20;;;3.08;;
34926;SDS011;21132;48.308;14.274;2022-09-03T18:02:30;6.85;;;2.40;;
34926;SDS011;21132;48.308;14.274;2022-09-03T18:05:17;6.53;;;2.70;;
34926;SDS011;21132;48.308;14.274;2022-09-03T18:07:49;3.92;;;2.67;;
34926;SDS011;21132;48.308;14.274;2022-09-03T18:16:28;4.75;;;2.95;;
34926;SDS011;21132;48.308;14.274;2022-09-03T18:18:59;3.97;;;2.75;;
34926;SDS011;21132;48.308;14.274;2022-09-03T18:21:57;5.43;;;2.83;;
34926;SDS011;21132;48.308;14.274;2022-09-03T18:24:51;5.03;;;2.97;;
34926;SDS011;21132;48.308;14.274;2022-09-03T18:27:45;13.32;;;3.30;;
34926;SDS011;21132;48.308;14.274;2022-09-03T18:30:36;6.18;;;3.15;;
34926;SDS011;21132;48.308;14.274;2022-09-03T18:33:22;3.83;;;2.53;;
34926;SDS011;21132;48.308;14.274;2022-09-03T18:36:08;6.25;;;2.50;;
34926;SDS011;21132;48.308;14.274;2022-09-03T18:38:56;6.10;;;2.67;;
34926;SDS011;21132;48.308;14.274;2022-09-03T18:57:29;4.93;;;2.97;;
34926;SDS011;21132;48.308;14.274;2022-09-03T19:00:29;5.00;;;2.50;;
34926;SDS011;21132;48.308;14.274;2022-09-03T19:16:07;6.57;;;2.80;;
34926;SDS011;21132;48.308;14.274;2022-09-03T19:21:58;3.08;;;2.13;;
34926;SDS011;21132;48.308;14.274;2022-09-03T19:25:04;4.38;;;2.30;;
34926;SDS011;21132;48.308;14.274;2022-09-03T19:34:29;3.63;;;2.15;;
34926;SDS011;21132;48.308;14.274;2022-09-03T19:37:34;2.83;;;1.90;;
34926;SDS011;21132;48.308;14.274;2022-09-03T19:46:35;5.30;;;2.45;;
34926;SDS011;21132;48.308;14.274;2022-09-03T19:55:36;8.38;;;4.00;;
34926;SDS011;21132;48.308;14.274;2022-09-03T19:58:26;6.38;;;3.70;;
34926;SDS011;21132;48.308;14.274;2022-09-03T20:01:14;9.80;;;3.05;;
34926;SDS011;21132;48.308;14.274;2022-09-03T20:04:03;8.18;;;2.88;;
34926;SDS011;21132;48.308;14.274;2022-09-03T20:06:54;4.43;;;2.90;;
34926;SDS011;21132;48.308;14.274;2022-09-03T20:09:39;6.95;;;3.22;;
34926;SDS011;21132;48.308;14.274;2022-09-03T20:12:25;3.08;;;2.38;;
34926;SDS011;21132;48.308;14.274;2022-09-03T20:14:55;5.05;;;2.85;;
34926;SDS011;21132;48.308;14.274;2022-09-03T20:23:19;8.05;;;3.15;;
34926;SDS011;21132;48.308;14.274;2022-09-03T20:32:07;2.83;;;2.47;;
34926;SDS011;21132;48.308;14.274;2022-09-03T20:43:12;4.85;;;3.20;;
34926;SDS011;21132;48.308;14.274;2022-09-03T20:51:35;5.43;;;3.13;;
34926;SDS011;21132;48.308;14.274;2022-09-03T20:54:20;7.20;;;3.97;;
34926;SDS011;21132;48.308;14.274;2022-09-03T20:59:29;4.50;;;3.30;;
34926;SDS011;21132;48.308;14.274;2022-09-03T21:02:07;5.82;;;3.47;;
34926;SDS011;21132;48.308;14.274;2022-09-03T21:24:23;5.57;;;3.22;;
34926;SDS011;21132;48.308;14.274;2022-09-03T21:26:58;3.75;;;3.25;;
34926;SDS011;21132;48.308;14.274;2022-09-03T21:29:33;5.72;;;3.90;;
34926;SDS011;21132;48.308;14.274;2022-09-03T21:32:07;7.70;;;3.63;;
34926;SDS011;21132;48.308;14.274;2022-09-03T21:34:57;4.88;;;3.80;;
34926;SDS011;21132;48.308;14.274;2022-09-03T21:37:41;4.07;;;3.67;;
34926;SDS011;21132;48.308;14.274;2022-09-03T21:40:15;5.95;;;3.90;;
34926;SDS011;21132;48.308;14.274;2022-09-03T21:42:52;5.57;;;3.40;;
34926;SDS011;21132;48.308;14.274;2022-09-03T21:51:46;5.40;;;3.70;;
34926;SDS011;21132;48.308;14.274;2022-09-03T21:54:27;3.60;;;3.30;;
34926;SDS011;21132;48.308;14.274;2022-09-03T22:00:06;3.35;;;3.05;;
34926;SDS011;21132;48.308;14.274;2022-09-03T22:02:34;4.20;;;3.13;;
34926;SDS011;21132;48.308;14.274;2022-09-03T22:05:02;8.10;;;4.13;;
34926;SDS011;21132;48.308;14.274;2022-09-03T22:15:34;6.55;;;3.45;;
34926;SDS011;21132;48.308;14.274;2022-09-03T22:20:39;4.72;;;4.20;;
34926;SDS011;21132;48.308;14.274;2022-09-03T22:23:17;4.93;;;3.80;;
34926;SDS011;21132;48.308;14.274;2022-09-03T22:31:31;4.88;;;4.25;;
34926;SDS011;21132;48.308;14.274;2022-09-03T22:37:03;6.55;;;4.45;;
34926;SDS011;21132;48.308;14.274;2022-09-03T22:39:38;4.22;;;3.80;;